Paranavai, Brazil
Current Conditions -  °F | °C
As of 8:00 AM on Tuesday 21 Oct 2014 (Local Time) from SBMG Reporting Station
Few Clouds Few Clouds  
Wind Chill: 66°   Ceiling: Unl
Heat Index: 66°   Visibility: 6mi
Dew Point: 54°   Wind: 10mph
Humidity: 64%   Direction: 60°ENE
Pressure: 30.09"   Gusts: NA
Location:  23.07°S, 52.47°W
Report Text: SBMG 211000Z 06009KT 9999 FEW020 19/12 Q1019
Loading
Personal Weather Stations






























Interactive Weather Map
Tropical Storm Tracking
New forecast layout! Learn more

10-Day Weather Forecast

Advertisements
Track Severe Weather on mobile